createdAt,value
2019-05-18T00:01:38.896Z,13.58
2019-05-18T00:04:10.760Z,13.47
2019-05-18T00:06:42.628Z,13.36
2019-05-18T00:09:14.510Z,13.36
2019-05-18T00:11:46.396Z,13.28
2019-05-18T00:14:18.278Z,13.20
2019-05-18T00:16:50.175Z,13.10
2019-05-18T00:19:22.077Z,13.06
2019-05-18T00:21:53.944Z,13.05
2019-05-18T00:24:26.018Z,13.02
2019-05-18T00:26:57.899Z,13.02
2019-05-18T00:29:29.828Z,13.01
2019-05-18T00:32:01.725Z,12.98
2019-05-18T00:34:33.690Z,13.05
2019-05-18T00:37:06.082Z,13.09
2019-05-18T00:39:38.250Z,13.11
2019-05-18T00:42:10.069Z,13.19
2019-05-18T00:44:41.928Z,13.18
2019-05-18T00:47:13.795Z,13.16
2019-05-18T00:49:46.694Z,13.14
2019-05-18T00:52:18.572Z,13.16
2019-05-18T00:54:50.444Z,13.13
2019-05-18T00:57:22.327Z,13.08
2019-05-18T00:59:54.222Z,13.11
2019-05-18T01:02:26.118Z,13.14
2019-05-18T01:04:58.017Z,13.10
2019-05-18T01:07:29.923Z,13.07
2019-05-18T01:10:01.807Z,13.10
2019-05-18T01:12:34.609Z,12.91
2019-05-18T01:15:07.059Z,12.91
2019-05-18T01:17:38.979Z,12.95
2019-05-18T01:20:11.095Z,12.95
2019-05-18T01:22:42.913Z,13.00
2019-05-18T01:25:14.799Z,12.96
2019-05-18T01:27:46.797Z,12.93
2019-05-18T01:30:19.662Z,12.90
2019-05-18T01:32:51.508Z,12.90
2019-05-18T01:35:23.439Z,12.90
2019-05-18T01:37:55.388Z,12.95
2019-05-18T01:40:27.202Z,12.91
2019-05-18T01:42:59.254Z,12.91
2019-05-18T01:45:31.145Z,12.88
2019-05-18T01:48:13.375Z,12.89
2019-05-18T01:50:36.619Z,12.89
2019-05-18T01:53:08.455Z,12.90
2019-05-18T01:55:40.362Z,12.85
2019-05-18T01:58:12.237Z,12.91
2019-05-18T02:00:44.120Z,12.82
2019-05-18T02:03:16.042Z,12.89
2019-05-18T02:05:47.867Z,12.91
2019-05-18T02:08:19.752Z,12.91
2019-05-18T02:10:51.638Z,12.89
2019-05-18T02:13:24.510Z,12.90
2019-05-18T02:15:56.322Z,12.92
2019-05-18T02:18:29.433Z,12.91
2019-05-18T02:21:01.347Z,12.88
2019-05-18T02:23:33.225Z,12.89
2019-05-18T02:26:05.286Z,12.90
2019-05-18T02:28:37.089Z,12.88
2019-05-18T02:31:08.997Z,12.88
2019-05-18T02:33:40.809Z,12.85
2019-05-18T02:36:12.703Z,12.84
2019-05-18T02:38:44.508Z,12.81
2019-05-18T02:41:16.369Z,12.80
2019-05-18T02:43:48.238Z,12.67
2019-05-18T02:46:20.143Z,12.66
2019-05-18T02:48:52.879Z,12.67
2019-05-18T02:51:24.698Z,12.70
2019-05-18T02:53:56.511Z,12.67
2019-05-18T02:56:28.341Z,12.68
2019-05-18T02:59:00.217Z,12.68
2019-05-18T03:01:32.488Z,12.67
2019-05-18T03:04:04.378Z,12.60
2019-05-18T03:06:36.576Z,12.59
2019-05-18T03:09:08.674Z,12.61
2019-05-18T03:11:40.500Z,12.64
2019-05-18T03:14:12.461Z,12.64
2019-05-18T03:16:44.389Z,12.61
2019-05-18T03:19:16.278Z,12.67
2019-05-18T03:21:48.161Z,12.73
2019-05-18T03:24:20.132Z,12.76
2019-05-18T03:26:52.020Z,12.80
2019-05-18T03:29:23.898Z,12.81
2019-05-18T03:31:55.810Z,12.81
2019-05-18T03:34:27.598Z,12.76
2019-05-18T03:36:59.421Z,12.75
2019-05-18T03:39:31.248Z,12.73
2019-05-18T03:42:03.143Z,12.74
2019-05-18T03:44:35.311Z,12.80
2019-05-18T03:47:07.202Z,12.80
2019-05-18T03:49:39.102Z,12.87
2019-05-18T03:52:11.895Z,12.93
2019-05-18T03:54:43.785Z,12.97
2019-05-18T03:57:15.613Z,12.98
2019-05-18T03:59:47.499Z,12.96
2019-05-18T04:02:19.310Z,13.01
2019-05-18T04:04:51.183Z,13.01
2019-05-18T04:07:23.059Z,13.09
2019-05-18T04:09:54.944Z,13.09
2019-05-18T04:12:26.833Z,13.10
2019-05-18T04:14:59.698Z,13.17
2019-05-18T04:17:31.779Z,13.17
2019-05-18T04:20:03.786Z,13.27
2019-05-18T04:22:35.942Z,13.38
2019-05-18T04:25:08.346Z,13.38
2019-05-18T04:27:40.141Z,13.45
2019-05-18T04:30:12.013Z,13.56
2019-05-18T04:32:44.000Z,13.56
2019-05-18T04:35:15.895Z,13.59
2019-05-18T04:37:47.872Z,13.68
2019-05-18T04:40:19.804Z,13.67
2019-05-18T04:42:51.687Z,13.73
2019-05-18T04:45:23.685Z,13.79
2019-05-18T04:47:55.492Z,13.83
2019-05-18T04:50:27.309Z,13.88
2019-05-18T04:52:59.187Z,13.93
2019-05-18T04:55:31.611Z,14.00
2019-05-18T04:58:03.483Z,14.00
2019-05-18T05:00:35.363Z,14.04
2019-05-18T05:03:07.346Z,14.09
2019-05-18T05:05:39.501Z,14.09
2019-05-18T05:08:11.584Z,14.08
2019-05-18T05:10:43.394Z,14.11
2019-05-18T05:13:15.369Z,14.13
2019-05-18T05:15:47.257Z,14.13
2019-05-18T05:18:19.209Z,14.20
2019-05-18T05:20:51.016Z,14.25
2019-05-18T05:23:22.921Z,14.31
2019-05-18T05:25:54.734Z,14.40
2019-05-18T05:28:26.612Z,14.45
2019-05-18T05:30:58.417Z,14.54
2019-05-18T05:33:30.258Z,14.61
2019-05-18T05:36:02.074Z,14.68
2019-05-18T05:38:33.948Z,14.75
2019-05-18T05:41:05.833Z,14.80
2019-05-18T05:43:37.879Z,14.81
2019-05-18T05:46:09.678Z,14.85
2019-05-18T05:48:41.556Z,14.93
2019-05-18T05:51:13.367Z,15.02
2019-05-18T05:53:45.167Z,15.07
2019-05-18T05:56:17.169Z,15.15
2019-05-18T05:58:48.965Z,15.20
2019-05-18T06:01:20.777Z,15.32
2019-05-18T06:03:52.674Z,15.37
2019-05-18T06:06:24.571Z,15.46
2019-05-18T06:08:56.395Z,15.53
2019-05-18T06:11:28.275Z,15.62
2019-05-18T06:14:01.146Z,15.67
2019-05-18T06:16:33.023Z,15.76
2019-05-18T06:19:04.895Z,15.85
2019-05-18T06:21:36.772Z,15.93
2019-05-18T06:24:08.829Z,15.95
2019-05-18T06:26:40.705Z,16.01
2019-05-18T06:29:12.553Z,16.03
2019-05-18T06:31:44.443Z,16.11
2019-05-18T06:34:16.284Z,16.20
2019-05-18T06:36:48.120Z,16.28
2019-05-18T06:39:19.925Z,16.36
2019-05-18T06:41:51.802Z,16.44
2019-05-18T06:44:23.666Z,16.56
2019-05-18T06:46:55.551Z,16.69
2019-05-18T06:49:27.436Z,16.92
2019-05-18T06:51:59.299Z,17.02
2019-05-18T06:54:31.415Z,17.06
2019-05-18T06:57:03.582Z,17.12
2019-05-18T06:59:37.016Z,17.21
2019-05-18T07:02:08.841Z,17.28
2019-05-18T07:04:40.723Z,17.35
2019-05-18T07:07:12.609Z,17.39
2019-05-18T07:09:44.496Z,17.40
2019-05-18T07:12:16.312Z,17.46
2019-05-18T07:14:48.189Z,17.49
2019-05-18T07:17:20.074Z,17.57
2019-05-18T07:19:52.363Z,17.67
2019-05-18T07:22:24.247Z,17.70
2019-05-18T07:24:56.134Z,17.76
2019-05-18T07:27:27.933Z,17.80
2019-05-18T07:29:59.821Z,17.88
2019-05-18T07:32:31.731Z,17.94
2019-05-18T07:35:03.560Z,18.01
2019-05-18T07:37:35.456Z,18.10
2019-05-18T07:40:07.789Z,18.16
2019-05-18T07:42:39.673Z,18.22
2019-05-18T07:45:13.161Z,18.28
2019-05-18T07:47:45.306Z,18.42
2019-05-18T07:50:17.272Z,18.46
2019-05-18T07:52:49.097Z,18.55
2019-05-18T07:55:21.899Z,18.63
2019-05-18T07:57:54.794Z,18.70
2019-05-18T08:00:26.682Z,18.81
2019-05-18T08:02:58.556Z,18.88
2019-05-18T08:05:30.358Z,19.02
2019-05-18T08:08:02.270Z,19.14
2019-05-18T08:10:38.296Z,19.22
2019-05-18T08:13:10.193Z,19.39
2019-05-18T08:15:42.624Z,19.50
2019-05-18T08:18:14.505Z,19.68
2019-05-18T08:20:46.800Z,19.76
2019-05-18T08:23:18.687Z,19.92
2019-05-18T08:25:50.560Z,20.12
2019-05-18T08:28:22.367Z,20.25
2019-05-18T08:30:54.169Z,20.34
2019-05-18T08:33:26.373Z,20.60
2019-05-18T08:35:58.265Z,20.81
2019-05-18T08:38:30.223Z,21.05
2019-05-18T08:41:02.116Z,21.04
2019-05-18T08:43:34.025Z,21.13
2019-05-18T08:46:05.869Z,21.18
2019-05-18T08:48:37.903Z,21.33
2019-05-18T08:51:09.805Z,21.62
2019-05-18T08:53:41.682Z,21.84
2019-05-18T08:56:13.485Z,21.75
2019-05-18T08:58:45.291Z,21.64
2019-05-18T09:01:17.122Z,21.61
2019-05-18T09:03:49.044Z,21.66
2019-05-18T09:06:20.921Z,21.72
2019-05-18T09:08:52.887Z,21.84
2019-05-18T09:11:24.760Z,21.89
2019-05-18T09:13:56.574Z,21.86
2019-05-18T09:16:28.394Z,21.76
2019-05-18T09:19:00.277Z,21.87
2019-05-18T09:21:32.076Z,22.08
2019-05-18T09:24:03.962Z,22.26
2019-05-18T09:26:35.937Z,22.42
2019-05-18T09:29:07.872Z,22.59
2019-05-18T09:31:39.955Z,22.67
2019-05-18T09:34:11.772Z,22.65
2019-05-18T09:36:43.590Z,22.86
2019-05-18T09:39:15.402Z,22.82
2019-05-18T09:41:47.269Z,23.08
2019-05-18T09:44:19.139Z,23.21
2019-05-18T09:46:50.936Z,23.27
2019-05-18T09:49:22.811Z,23.31
2019-05-18T09:51:54.679Z,23.25
2019-05-18T09:54:26.495Z,23.17
2019-05-18T09:56:58.364Z,23.17
2019-05-18T09:59:30.556Z,23.06
2019-05-18T10:02:02.417Z,23.12
2019-05-18T10:04:34.303Z,23.10
2019-05-18T10:07:07.612Z,23.08
2019-05-18T10:09:39.915Z,23.00
2019-05-18T10:12:11.854Z,22.90
2019-05-18T10:14:43.725Z,23.07
2019-05-18T10:17:15.605Z,23.09
2019-05-18T10:19:47.492Z,22.87
2019-05-18T10:22:19.353Z,22.64
2019-05-18T10:24:51.244Z,22.69
2019-05-18T10:27:23.143Z,22.64
2019-05-18T10:29:55.032Z,23.10
2019-05-18T10:32:26.885Z,23.54
2019-05-18T10:34:58.828Z,23.72
2019-05-18T10:37:30.909Z,24.05
2019-05-18T10:40:02.846Z,23.92
2019-05-18T10:42:34.892Z,24.38
2019-05-18T10:45:07.036Z,24.89
2019-05-18T10:47:39.467Z,25.21
2019-05-18T10:50:11.650Z,25.53
2019-05-18T10:52:43.515Z,25.79
2019-05-18T10:55:15.493Z,26.14
2019-05-18T10:57:47.365Z,25.78
2019-05-18T11:00:19.557Z,25.80
2019-05-18T11:02:51.438Z,25.61
2019-05-18T11:05:23.324Z,25.11
2019-05-18T11:07:55.190Z,25.48
2019-05-18T11:10:27.082Z,25.10
2019-05-18T11:12:58.960Z,25.27
2019-05-18T11:15:30.773Z,25.75
2019-05-18T11:18:02.646Z,25.28
2019-05-18T11:20:34.523Z,24.94
2019-05-18T11:23:07.383Z,25.23
2019-05-18T11:25:39.232Z,25.88
2019-05-18T11:28:11.111Z,25.86
2019-05-18T11:30:42.919Z,25.51
2019-05-18T11:33:14.815Z,24.99
2019-05-18T11:35:46.713Z,24.74
2019-05-18T11:38:18.641Z,25.38
2019-05-18T11:40:50.527Z,25.66
2019-05-18T11:43:22.403Z,25.49
2019-05-18T11:45:54.215Z,25.90
2019-05-18T11:48:26.105Z,25.51
2019-05-18T11:50:57.909Z,25.35
2019-05-18T11:53:29.785Z,26.02
2019-05-18T11:56:01.589Z,26.79
2019-05-18T11:58:33.455Z,27.01
2019-05-18T12:01:05.364Z,27.19
2019-05-18T12:03:37.225Z,27.72
2019-05-18T12:06:09.094Z,27.48
2019-05-18T12:08:40.976Z,27.81
2019-05-18T12:11:12.834Z,28.24
2019-05-18T12:13:44.680Z,28.38
2019-05-18T12:16:17.547Z,28.32
2019-05-18T12:18:49.527Z,28.40
2019-05-18T12:21:21.384Z,27.75
2019-05-18T12:23:53.253Z,28.29
2019-05-18T12:26:25.044Z,28.67
2019-05-18T12:28:56.912Z,29.00
2019-05-18T12:31:28.776Z,29.14
2019-05-18T12:34:00.646Z,29.54
2019-05-18T12:36:32.546Z,29.61
2019-05-18T12:39:05.763Z,29.95
2019-05-18T12:41:37.813Z,30.04
2019-05-18T12:44:09.700Z,29.34
2019-05-18T12:46:41.585Z,28.77
2019-05-18T12:49:13.624Z,28.46
2019-05-18T12:51:45.483Z,28.06
2019-05-18T12:54:28.838Z,27.49
2019-05-18T12:56:50.997Z,26.91
2019-05-18T12:59:22.890Z,26.49
2019-05-18T13:01:54.763Z,26.46
2019-05-18T13:04:27.631Z,26.35
2019-05-18T13:06:59.488Z,26.06
2019-05-18T13:09:31.263Z,26.12
2019-05-18T13:12:03.277Z,26.01
2019-05-18T13:14:35.403Z,26.17
2019-05-18T13:17:07.229Z,26.39
2019-05-18T13:19:39.025Z,26.37
2019-05-18T13:22:10.917Z,26.66
2019-05-18T13:24:45.318Z,26.85
2019-05-18T13:27:16.248Z,26.79
2019-05-18T13:29:48.030Z,26.53
2019-05-18T13:32:19.885Z,26.09
2019-05-18T13:34:51.669Z,26.01
2019-05-18T13:37:23.515Z,26.07
2019-05-18T13:39:55.371Z,26.05
2019-05-18T13:42:28.234Z,26.04
2019-05-18T13:45:00.009Z,26.11
2019-05-18T13:47:31.862Z,26.05
2019-05-18T13:50:03.732Z,26.28
2019-05-18T13:52:35.602Z,26.21
2019-05-18T13:55:10.037Z,26.48
2019-05-18T13:57:41.876Z,26.81
2019-05-18T14:00:15.065Z,26.94
2019-05-18T14:02:50.051Z,26.59
2019-05-18T14:05:21.906Z,26.61
2019-05-18T14:07:53.715Z,26.25
2019-05-18T14:10:25.592Z,25.78
2019-05-18T14:12:57.451Z,25.71
2019-05-18T14:15:29.324Z,25.61
2019-05-18T14:18:01.193Z,25.43
2019-05-18T14:20:33.068Z,25.33
2019-05-18T14:23:04.966Z,25.48
2019-05-18T14:25:36.809Z,25.69
2019-05-18T14:28:08.649Z,25.90
2019-05-18T14:30:41.517Z,26.72
2019-05-18T14:33:13.377Z,27.75
2019-05-18T14:35:45.237Z,28.15
2019-05-18T14:38:17.122Z,28.02
2019-05-18T14:40:48.905Z,28.33
2019-05-18T14:43:20.757Z,28.94
2019-05-18T14:45:52.547Z,28.98
2019-05-18T14:48:24.422Z,29.26
2019-05-18T14:50:56.282Z,29.21
2019-05-18T14:53:28.154Z,28.96
2019-05-18T14:56:00.027Z,29.00
2019-05-18T14:58:31.888Z,29.51
2019-05-18T15:01:03.702Z,30.36
2019-05-18T15:03:35.571Z,31.41
2019-05-18T15:06:07.444Z,32.30
2019-05-18T15:08:39.398Z,32.80
2019-05-18T15:11:11.289Z,33.02
2019-05-18T15:13:43.156Z,32.87
2019-05-18T15:16:15.023Z,33.56
2019-05-18T15:18:46.886Z,34.21
2019-05-18T15:21:18.853Z,34.53
2019-05-18T15:23:50.764Z,34.86
2019-05-18T15:26:22.719Z,34.85
2019-05-18T15:28:54.500Z,34.77
2019-05-18T15:31:26.365Z,34.73
2019-05-18T15:33:58.225Z,32.69
2019-05-18T15:36:30.084Z,32.99
2019-05-18T15:39:01.980Z,32.48
2019-05-18T15:41:35.398Z,32.19
2019-05-18T15:44:07.250Z,33.09
2019-05-18T15:46:39.107Z,33.96
2019-05-18T15:49:10.991Z,34.87
2019-05-18T15:51:42.846Z,35.61
2019-05-18T15:54:14.705Z,35.91
2019-05-18T15:56:46.568Z,36.21
2019-05-18T15:59:18.443Z,36.08
2019-05-18T16:01:50.289Z,35.62
2019-05-18T16:04:22.156Z,36.33
2019-05-18T16:06:54.111Z,36.18
2019-05-18T16:09:26.009Z,36.56
2019-05-18T16:11:57.895Z,36.75
2019-05-18T16:14:29.760Z,36.68
2019-05-18T16:17:01.628Z,36.12
2019-05-18T16:19:33.501Z,36.27
2019-05-18T16:22:05.414Z,35.95
2019-05-18T16:24:37.381Z,34.36
2019-05-18T16:27:09.269Z,33.08
2019-05-18T16:29:41.046Z,31.93
2019-05-18T16:32:12.906Z,31.21
2019-05-18T16:34:44.869Z,30.66
2019-05-18T16:37:16.763Z,30.13
2019-05-18T16:39:48.644Z,29.61
2019-05-18T16:42:20.510Z,29.44
2019-05-18T16:44:52.463Z,29.20
2019-05-18T16:47:24.272Z,28.97
2019-05-18T16:49:56.070Z,28.31
2019-05-18T16:52:27.867Z,27.98
2019-05-18T16:54:59.723Z,27.74
2019-05-18T16:57:31.584Z,27.31
2019-05-18T17:00:04.610Z,27.13
2019-05-18T17:02:37.491Z,27.00
2019-05-18T17:05:09.629Z,26.86
2019-05-18T17:07:41.493Z,26.59
2019-05-18T17:10:13.566Z,26.29
2019-05-18T17:12:45.368Z,26.13
2019-05-18T17:15:17.289Z,26.07
2019-05-18T17:17:49.247Z,25.95
2019-05-18T17:20:21.640Z,25.78
2019-05-18T17:22:53.562Z,25.65
2019-05-18T17:25:25.425Z,25.57
2019-05-18T17:27:57.202Z,25.44
2019-05-18T17:30:28.990Z,25.34
2019-05-18T17:33:00.851Z,25.25
2019-05-18T17:35:32.726Z,25.19
2019-05-18T17:38:04.538Z,25.16
2019-05-18T17:40:37.418Z,25.05
2019-05-18T17:43:10.015Z,24.87
2019-05-18T17:45:41.918Z,24.72
2019-05-18T17:48:13.836Z,24.69
2019-05-18T17:50:45.862Z,24.62
2019-05-18T17:53:17.729Z,24.58
2019-05-18T17:55:49.603Z,24.49
2019-05-18T17:58:21.486Z,24.42
2019-05-18T18:00:53.285Z,24.34
2019-05-18T18:03:25.152Z,24.28
2019-05-18T18:05:57.022Z,24.19
2019-05-18T18:08:28.904Z,24.12
2019-05-18T18:11:00.779Z,23.97
2019-05-18T18:13:32.744Z,23.89
2019-05-18T18:16:04.607Z,23.75
2019-05-18T18:18:36.586Z,23.51
2019-05-18T18:21:08.597Z,23.43
2019-05-18T18:23:40.487Z,23.10
2019-05-18T18:26:12.421Z,22.95
2019-05-18T18:28:44.276Z,22.82
2019-05-18T18:31:16.147Z,22.77
2019-05-18T18:33:48.008Z,22.65
2019-05-18T18:36:19.813Z,22.58
2019-05-18T18:38:51.679Z,22.40
2019-05-18T18:41:23.538Z,22.24
2019-05-18T18:43:55.409Z,22.10
2019-05-18T18:46:27.279Z,22.01
2019-05-18T18:48:59.136Z,21.87
2019-05-18T18:51:31.019Z,21.72
2019-05-18T18:54:02.866Z,21.62
2019-05-18T18:56:34.892Z,21.52
2019-05-18T18:59:06.771Z,21.37
2019-05-18T19:01:38.653Z,21.26
2019-05-18T19:04:10.531Z,21.04
2019-05-18T19:06:42.717Z,20.93
2019-05-18T19:09:14.673Z,20.79
2019-05-18T19:11:46.549Z,20.68
2019-05-18T19:14:18.375Z,20.58
2019-05-18T19:16:50.330Z,20.48
2019-05-18T19:19:22.128Z,20.31
2019-05-18T19:21:54.005Z,20.22
2019-05-18T19:24:25.882Z,20.05
2019-05-18T19:26:57.769Z,19.87
2019-05-18T19:29:29.629Z,19.82
2019-05-18T19:32:01.510Z,19.80
2019-05-18T19:34:33.571Z,19.72
2019-05-18T19:37:05.442Z,19.64
2019-05-18T19:39:38.636Z,19.55
2019-05-18T19:42:10.526Z,19.46
2019-05-18T19:44:42.418Z,19.38
2019-05-18T19:47:14.306Z,19.37
2019-05-18T19:49:46.194Z,19.31
2019-05-18T19:52:17.982Z,19.17
2019-05-18T19:54:49.846Z,19.03
2019-05-18T19:57:21.732Z,18.88
2019-05-18T19:59:53.602Z,18.75
2019-05-18T20:02:25.530Z,18.59
2019-05-18T20:05:07.188Z,18.60
2019-05-18T20:07:30.982Z,18.58
2019-05-18T20:10:02.848Z,18.52
2019-05-18T20:12:35.019Z,18.45
2019-05-18T20:15:09.583Z,18.33
2019-05-18T20:17:40.672Z,18.25
2019-05-18T20:20:14.690Z,18.21
2019-05-18T20:22:46.561Z,18.19
2019-05-18T20:25:18.475Z,18.20
2019-05-18T20:27:50.326Z,18.15
2019-05-18T20:30:22.291Z,18.00
2019-05-18T20:32:54.154Z,17.91
2019-05-18T20:35:26.068Z,17.83
2019-05-18T20:37:57.844Z,17.76
2019-05-18T20:40:29.702Z,17.58
2019-05-18T20:43:01.748Z,17.51
2019-05-18T20:45:33.832Z,17.46
2019-05-18T20:48:05.847Z,17.37
2019-05-18T20:50:37.669Z,17.18
2019-05-18T20:53:09.499Z,17.21
2019-05-18T20:55:41.458Z,17.15
2019-05-18T20:58:13.328Z,17.13
2019-05-18T21:00:45.141Z,17.09
2019-05-18T21:03:18.026Z,17.02
2019-05-18T21:05:50.067Z,17.07
2019-05-18T21:08:21.919Z,17.03
2019-05-18T21:10:53.794Z,17.04
2019-05-18T21:13:25.651Z,16.96
2019-05-18T21:15:57.518Z,16.89
2019-05-18T21:18:29.314Z,16.88
2019-05-18T21:21:01.130Z,16.73
2019-05-18T21:23:32.983Z,16.72
2019-05-18T21:26:04.920Z,16.70
2019-05-18T21:28:36.717Z,16.64
2019-05-18T21:31:08.622Z,16.57
2019-05-18T21:33:40.427Z,16.52
2019-05-18T21:36:13.294Z,16.48
2019-05-18T21:38:45.175Z,16.36
2019-05-18T21:41:16.978Z,16.31
2019-05-18T21:43:48.795Z,16.18
2019-05-18T21:46:20.617Z,16.23
2019-05-18T21:48:52.494Z,16.26
2019-05-18T21:51:24.363Z,16.26
2019-05-18T21:53:56.157Z,16.26
2019-05-18T21:56:27.938Z,16.28
2019-05-18T21:59:11.046Z,16.25
2019-05-18T22:01:33.445Z,16.29
2019-05-18T22:04:06.611Z,16.37
2019-05-18T22:06:38.622Z,16.40
2019-05-18T22:09:10.606Z,16.38
2019-05-18T22:11:42.523Z,16.34
2019-05-18T22:14:14.372Z,16.10
2019-05-18T22:16:46.283Z,15.89
2019-05-18T22:19:18.152Z,15.92
2019-05-18T22:21:49.948Z,15.84
2019-05-18T22:24:21.835Z,15.88
2019-05-18T22:26:53.721Z,15.82
2019-05-18T22:29:26.591Z,15.79
2019-05-18T22:31:58.388Z,15.79
2019-05-18T22:34:30.265Z,15.75
2019-05-18T22:37:02.275Z,15.79
2019-05-18T22:39:34.160Z,15.77
2019-05-18T22:42:06.025Z,15.77
2019-05-18T22:44:37.895Z,15.79
2019-05-18T22:47:09.721Z,15.78
2019-05-18T22:49:41.595Z,15.74
2019-05-18T22:52:13.476Z,15.72
2019-05-18T22:54:45.436Z,15.71
2019-05-18T22:57:17.306Z,15.63
2019-05-18T22:59:49.206Z,15.58
2019-05-18T23:02:21.183Z,15.62
2019-05-18T23:04:53.149Z,15.53
2019-05-18T23:07:25.127Z,15.49
2019-05-18T23:09:56.988Z,15.55
2019-05-18T23:12:28.879Z,15.58
2019-05-18T23:15:01.140Z,15.47
2019-05-18T23:17:33.026Z,15.42
2019-05-18T23:20:05.412Z,15.47
2019-05-18T23:22:37.228Z,15.49
2019-05-18T23:25:09.352Z,15.45
2019-05-18T23:27:41.324Z,15.43
2019-05-18T23:30:14.023Z,15.36
2019-05-18T23:32:45.830Z,15.30
2019-05-18T23:35:18.714Z,15.19
2019-05-18T23:37:50.595Z,15.16
2019-05-18T23:40:22.589Z,15.12
2019-05-18T23:42:54.386Z,15.04
2019-05-18T23:45:26.301Z,14.98
2019-05-18T23:47:59.592Z,14.90
2019-05-18T23:50:31.566Z,14.85
2019-05-18T23:53:03.426Z,14.79
2019-05-18T23:55:35.470Z,14.77
2019-05-18T23:58:07.357Z,14.78
